Spruce Express — VRBZ4 — position and weather

sailwx.info

Track history (hours):
 
Tides and Currents Weather Stations Pressure Air Temp Water Temp Dewpoint Dewpoint Depression Visibility Wind Speed Wind Dir Waves Ship Positions

Spruce Express

Last reported at 2018-Jun-16 10:26 UTC. Time now 2018-Jun-21 08:44 UTC.
Position N 40°27' W 073°52'.

Length 183 m; draft 9 m.

Type: Tanker. MMSI: 477241300.

Date/timePositionNaut miles runAvg speedWind from/ knotsBaromVisibWave heightAir tempDewpointWater temp
2018-Jun-16 10:26N 40°27' W 073°52'510.8
2018-Jun-16 09:58N 40°28' W 073°58'510.0
2018-Jun-16 09:29N 40°29' W 074°04'511.1
2018-Jun-16 09:01N 40°30' W 074°11'3 5.8
2018-Jun-16 08:27N 40°31' W 074°15'2 5.6
2018-Jun-16 08:00N 40°33' W 074°14'6 0.2
2018-Jun-14 21:00N 40°39' W 074°11'4 7.7
2018-Jun-14 20:26N 40°39' W 074°06'2 4.1
2018-Jun-14 20:00N 40°38' W 074°04'0 0.1
2018-Jun-14 19:30N 40°38' W 074°04'0 0.0
2018-Jun-14 19:00N 40°38' W 074°04'0 0.0
2018-Jun-14 18:30N 40°38' W 074°04'0 0.0
2018-Jun-14 18:00N 40°38' W 074°04'0 0.0
2018-Jun-14 17:30N 40°38' W 074°04'0 0.0
2018-Jun-14 17:00N 40°38' W 074°04'0 0.0
2018-Jun-14 16:30N 40°38' W 074°04'0 0.0
2018-Jun-14 16:00N 40°38' W 074°04'0 0.1
2018-Jun-14 15:30N 40°38' W 074°04'0 0.2
2018-Jun-14 15:00N 40°38' W 074°04'0 0.1
2018-Jun-14 14:27N 40°38' W 074°04'0 0.2
2018-Jun-14 14:00N 40°38' W 074°04'0 0.1
2018-Jun-14 13:30N 40°38' W 074°04'0 0.0
2018-Jun-14 13:00N 40°38' W 074°04'0 0.1
2018-Jun-14 12:30N 40°38' W 074°04'0 0.1
2018-Jun-14 12:00N 40°38' W 074°04'0 0.1
2018-Jun-14 11:30N 40°38' W 074°04'0 0.1
2018-Jun-14 11:00N 40°38' W 074°04'0 0.0
2018-Jun-14 10:30N 40°38' W 074°04'0 0.1
2018-Jun-14 09:57N 40°38' W 074°04'0 0.3
2018-Jun-14 09:30N 40°38' W 074°04'0 0.1
2018-Jun-14 09:00N 40°38' W 074°04'0 0.0
2018-Jun-14 08:30N 40°38' W 074°04'0 0.0
2018-Jun-14 08:00N 40°38' W 074°04'0 0.0
2018-Jun-14 07:27N 40°38' W 074°04'0 0.1
2018-Jun-14 07:00N 40°38' W 074°04'0 0.1
2018-Jun-14 06:27N 40°38' W 074°04'0 0.0
2018-Jun-14 06:00N 40°38' W 074°04'0 0.0
2018-Jun-14 05:30N 40°38' W 074°04'0 0.1
2018-Jun-14 05:00N 40°38' W 074°04'0 0.1
2018-Jun-14 04:30N 40°38' W 074°04'0 0.1
2018-Jun-14 04:00N 40°38' W 074°04'0 0.0
2018-Jun-14 03:30N 40°38' W 074°04'0 0.1
2018-Jun-14 03:00N 40°38' W 074°04'0 0.3
2018-Jun-14 02:30N 40°38' W 074°04'0 0.1
2018-Jun-14 02:00N 40°38' W 074°04'0 0.1
2018-Jun-14 01:30N 40°38' W 074°04'0 0.0
2018-Jun-14 01:00N 40°38' W 074°04'0 0.0
2018-Jun-14 00:30N 40°38' W 074°04'0 0.1
2018-Jun-13 23:57N 40°38' W 074°04'0 0.1
2018-Jun-13 23:30N 40°38' W 074°04'0 0.0
2018-Jun-13 22:57N 40°38' W 074°04'0 0.0
2018-Jun-13 22:30N 40°38' W 074°04'0 0.0
2018-Jun-13 22:00N 40°38' W 074°04'0 0.0
2018-Jun-13 21:30N 40°38' W 074°04'0 0.2
2018-Jun-13 21:00N 40°38' W 074°04'0 0.3
2018-Jun-13 20:30N 40°38' W 074°04'0 0.1
2018-Jun-13 20:00N 40°38' W 074°04'0 0.0
2018-Jun-13 19:30N 40°38' W 074°04'0 0.0
2018-Jun-13 19:00N 40°38' W 074°04'0 0.0
2018-Jun-13 18:30N 40°38' W 074°04'0 0.1
2018-Jun-13 18:00N 40°38' W 074°04'0 0.1
2018-Jun-13 17:30N 40°38' W 074°04'0 0.0
2018-Jun-13 17:00N 40°38' W 074°04'0 0.0
2018-Jun-13 16:30N 40°38' W 074°04'0 0.0
2018-Jun-13 16:00N 40°38' W 074°04'0 0.0
2018-Jun-13 15:30N 40°38' W 074°04'0 0.0
2018-Jun-13 15:00N 40°38' W 074°04'0 0.5
2018-Jun-13 14:30N 40°38' W 074°04'0 0.0
2018-Jun-13 14:00N 40°38' W 074°04'0 0.0
2018-Jun-13 13:30N 40°38' W 074°04'0 0.1
2018-Jun-13 13:00N 40°38' W 074°04'0 0.0
2018-Jun-13 12:30N 40°38' W 074°04'0 0.0
2018-Jun-13 12:00N 40°38' W 074°04'0 0.0
2018-Jun-13 11:30N 40°38' W 074°04'0 0.0
2018-Jun-13 11:00N 40°38' W 074°04'0 0.1
2018-Jun-13 10:27N 40°38' W 074°04'0 0.1
2018-Jun-13 09:57N 40°38' W 074°04'0 0.1
2018-Jun-13 09:30N 40°38' W 074°04'0 0.0
2018-Jun-13 09:00N 40°38' W 074°04'0 0.2
2018-Jun-13 08:30N 40°38' W 074°04'0 0.2
2018-Jun-13 08:00N 40°38' W 074°04'0 0.1
2018-Jun-13 07:30N 40°38' W 074°04'0 0.1
2018-Jun-13 07:00N 40°38' W 074°04'0 0.1
2018-Jun-13 06:30N 40°38' W 074°04'0 0.1
2018-Jun-13 06:00N 40°38' W 074°04'0 0.0
2018-Jun-13 05:30N 40°38' W 074°04'0 0.1
2018-Jun-13 05:00N 40°38' W 074°04'0 0.1
2018-Jun-13 04:30N 40°38' W 074°04'0 0.1
2018-Jun-13 04:00N 40°38' W 074°04'0 0.0
2018-Jun-13 03:30N 40°38' W 074°04'0 0.1
2018-Jun-13 03:00N 40°38' W 074°04'0 0.3
2018-Jun-13 02:30N 40°38' W 074°04'0 0.3
2018-Jun-13 02:00N 40°38' W 074°04'0 0.0
2018-Jun-13 01:30N 40°38' W 074°04'0 0.0
2018-Jun-13 00:51N 40°38' W 074°04'0 0.0
2018-Jun-13 00:30N 40°38' W 074°04'0 0.0
2018-Jun-12 23:59N 40°38' W 074°04'0 0.0
2018-Jun-12 23:30N 40°38' W 074°04'0 0.1
2018-Jun-12 23:00N 40°38' W 074°04'0 0.0
2018-Jun-12 22:30N 40°38' W 074°04'0 0.0
2018-Jun-12 22:00N 40°38' W 074°04'0 0.8
2018-Jun-12 21:30N 40°38' W 074°03'5 9.7
2018-Jun-12 21:00N 40°34' W 074°02'5 9.3
2018-Jun-12 20:30N 40°29' W 074°03'10 0.4
2018-Jun-11 20:06N 40°39' W 074°05'0 4.9
2018-Jun-11 20:00N 40°39' W 074°04'1 0.3
2018-Jun-11 16:24N 40°38' W 074°03'0 0.0
2018-Jun-11 07:39N 40°39' W 074°03'0 0.4
2018-Jun-11 07:21N 40°38' W 074°03'0 0.3
2018-Jun-11 07:00N 40°38' W 074°03'0 0.0
2018-Jun-11 06:30N 40°38' W 074°03'0 0.0
2018-Jun-11 06:00N 40°38' W 074°03'0 0.0
2018-Jun-11 05:30N 40°38' W 074°03'0 0.1
2018-Jun-11 05:00N 40°38' W 074°03'0 0.1
2018-Jun-11 04:30N 40°38' W 074°03'0 0.0
2018-Jun-11 04:00N 40°38' W 074°03'0 0.0
2018-Jun-11 03:30N 40°38' W 074°03'0 0.1
2018-Jun-11 03:00N 40°38' W 074°03'0 0.1
2018-Jun-11 02:30N 40°38' W 074°03'0 0.2
2018-Jun-11 02:00N 40°38' W 074°03'0 0.1
2018-Jun-11 01:30N 40°38' W 074°03'0 0.1
2018-Jun-11 00:57N 40°38' W 074°03'0 0.4
2018-Jun-11 00:30N 40°39' W 074°03'0 0.1
2018-Jun-11 00:00N 40°39' W 074°03'0 0.0
2018-Jun-10 23:30N 40°39' W 074°03'0 0.0
2018-Jun-10 23:00N 40°39' W 074°03'0 0.0
2018-Jun-10 22:30N 40°39' W 074°03'0 0.0
2018-Jun-10 22:00N 40°39' W 074°03'0 0.0
2018-Jun-10 21:30N 40°39' W 074°03'0 0.0
2018-Jun-10 21:00N 40°39' W 074°03'0 0.0
2018-Jun-10 20:30N 40°39' W 074°03'0 0.0
2018-Jun-10 19:57N 40°39' W 074°03'0 0.0
2018-Jun-10 19:30N 40°39' W 074°03'0 0.1
2018-Jun-10 19:00N 40°39' W 074°03'0 0.1
2018-Jun-10 18:30N 40°39' W 074°03'0 0.3
2018-Jun-10 17:54N 40°38' W 074°03'0 0.1
2018-Jun-10 17:30N 40°38' W 074°03'0 0.1
2018-Jun-10 17:00N 40°38' W 074°03'0 0.1
2018-Jun-10 16:30N 40°38' W 074°03'0 0.0
2018-Jun-10 16:00N 40°38' W 074°03'0 0.0
2018-Jun-10 15:30N 40°38' W 074°03'0 0.0
2018-Jun-10 15:00N 40°38' W 074°03'0 0.0
2018-Jun-10 14:00N 40°38' W 074°03'0 0.1
2018-Jun-10 13:30N 40°38' W 074°03'0 0.0
2018-Jun-10 13:00N 40°38' W 074°03'0 0.0
2018-Jun-10 12:30N 40°38' W 074°03'0 0.0
2018-Jun-10 12:00N 40°38' W 074°03'0 0.1
2018-Jun-10 11:30N 40°38' W 074°03'2 3.9
2018-Jun-10 11:01N 40°36' W 074°03'4 7.9
2018-Jun-10 10:30N 40°33' W 074°01'4 7.5
2018-Jun-10 09:58N 40°30' W 073°57'  
Track history (hours):
 
Tides and Currents Weather Stations Pressure Air Temp Water Temp Dewpoint Dewpoint Depression Visibility Wind Speed Wind Dir Waves Ship Positions

Spruce Express

Last reported at 2018-Jun-16 10:26 UTC. Time now 2018-Jun-21 08:44 UTC.
Position N 40°27' W 073°52'.

Length 183 m; draft 9 m.

Type: Tanker. MMSI: 477241300.

Date/timePositionNaut miles runAvg speedWind from/ knotsBaromVisibWave heightAir tempDewpointWater temp
2018-Jun-16 10:26N 40°27' W 073°52'510.8
2018-Jun-16 09:58N 40°28' W 073°58'510.0
2018-Jun-16 09:29N 40°29' W 074°04'511.1
2018-Jun-16 09:01N 40°30' W 074°11'3 5.8
2018-Jun-16 08:27N 40°31' W 074°15'2 5.6
2018-Jun-16 08:00N 40°33' W 074°14'6 0.2
2018-Jun-14 21:00N 40°39' W 074°11'4 7.7
2018-Jun-14 20:26N 40°39' W 074°06'2 4.1
2018-Jun-14 20:00N 40°38' W 074°04'0 0.1
2018-Jun-14 19:30N 40°38' W 074°04'0 0.0
2018-Jun-14 19:00N 40°38' W 074°04'0 0.0
2018-Jun-14 18:30N 40°38' W 074°04'0 0.0
2018-Jun-14 18:00N 40°38' W 074°04'0 0.0
2018-Jun-14 17:30N 40°38' W 074°04'0 0.0
2018-Jun-14 17:00N 40°38' W 074°04'0 0.0
2018-Jun-14 16:30N 40°38' W 074°04'0 0.0
2018-Jun-14 16:00N 40°38' W 074°04'0 0.1
2018-Jun-14 15:30N 40°38' W 074°04'0 0.2
2018-Jun-14 15:00N 40°38' W 074°04'0 0.1
2018-Jun-14 14:27N 40°38' W 074°04'0 0.2
2018-Jun-14 14:00N 40°38' W 074°04'0 0.1
2018-Jun-14 13:30N 40°38' W 074°04'0 0.0
2018-Jun-14 13:00N 40°38' W 074°04'0 0.1
2018-Jun-14 12:30N 40°38' W 074°04'0 0.1
2018-Jun-14 12:00N 40°38' W 074°04'0 0.1
2018-Jun-14 11:30N 40°38' W 074°04'0 0.1
2018-Jun-14 11:00N 40°38' W 074°04'0 0.0
2018-Jun-14 10:30N 40°38' W 074°04'0 0.1
2018-Jun-14 09:57N 40°38' W 074°04'0 0.3
2018-Jun-14 09:30N 40°38' W 074°04'0 0.1
2018-Jun-14 09:00N 40°38' W 074°04'0 0.0
2018-Jun-14 08:30N 40°38' W 074°04'0 0.0
2018-Jun-14 08:00N 40°38' W 074°04'0 0.0
2018-Jun-14 07:27N 40°38' W 074°04'0 0.1
2018-Jun-14 07:00N 40°38' W 074°04'0 0.1
2018-Jun-14 06:27N 40°38' W 074°04'0 0.0
2018-Jun-14 06:00N 40°38' W 074°04'0 0.0
2018-Jun-14 05:30N 40°38' W 074°04'0 0.1
2018-Jun-14 05:00N 40°38' W 074°04'0 0.1
2018-Jun-14 04:30N 40°38' W 074°04'0 0.1
2018-Jun-14 04:00N 40°38' W 074°04'0 0.0
2018-Jun-14 03:30N 40°38' W 074°04'0 0.1
2018-Jun-14 03:00N 40°38' W 074°04'0 0.3
2018-Jun-14 02:30N 40°38' W 074°04'0 0.1
2018-Jun-14 02:00N 40°38' W 074°04'0 0.1
2018-Jun-14 01:30N 40°38' W 074°04'0 0.0
2018-Jun-14 01:00N 40°38' W 074°04'0 0.0
2018-Jun-14 00:30N 40°38' W 074°04'0 0.1
2018-Jun-13 23:57N 40°38' W 074°04'0 0.1
2018-Jun-13 23:30N 40°38' W 074°04'0 0.0
2018-Jun-13 22:57N 40°38' W 074°04'0 0.0
2018-Jun-13 22:30N 40°38' W 074°04'0 0.0
2018-Jun-13 22:00N 40°38' W 074°04'0 0.0
2018-Jun-13 21:30N 40°38' W 074°04'0 0.2
2018-Jun-13 21:00N 40°38' W 074°04'0 0.3
2018-Jun-13 20:30N 40°38' W 074°04'0 0.1
2018-Jun-13 20:00N 40°38' W 074°04'0 0.0
2018-Jun-13 19:30N 40°38' W 074°04'0 0.0
2018-Jun-13 19:00N 40°38' W 074°04'0 0.0
2018-Jun-13 18:30N 40°38' W 074°04'0 0.1
2018-Jun-13 18:00N 40°38' W 074°04'0 0.1
2018-Jun-13 17:30N 40°38' W 074°04'0 0.0
2018-Jun-13 17:00N 40°38' W 074°04'0 0.0
2018-Jun-13 16:30N 40°38' W 074°04'0 0.0
2018-Jun-13 16:00N 40°38' W 074°04'0 0.0
2018-Jun-13 15:30N 40°38' W 074°04'0 0.0
2018-Jun-13 15:00N 40°38' W 074°04'0 0.5
2018-Jun-13 14:30N 40°38' W 074°04'0 0.0
2018-Jun-13 14:00N 40°38' W 074°04'0 0.0
2018-Jun-13 13:30N 40°38' W 074°04'0 0.1
2018-Jun-13 13:00N 40°38' W 074°04'0 0.0
2018-Jun-13 12:30N 40°38' W 074°04'0 0.0
2018-Jun-13 12:00N 40°38' W 074°04'0 0.0
2018-Jun-13 11:30N 40°38' W 074°04'0 0.0
2018-Jun-13 11:00N 40°38' W 074°04'0 0.1
2018-Jun-13 10:27N 40°38' W 074°04'0 0.1
2018-Jun-13 09:57N 40°38' W 074°04'0 0.1
2018-Jun-13 09:30N 40°38' W 074°04'0 0.0
2018-Jun-13 09:00N 40°38' W 074°04'0 0.2
2018-Jun-13 08:30N 40°38' W 074°04'0 0.2
2018-Jun-13 08:00N 40°38' W 074°04'0 0.1
2018-Jun-13 07:30N 40°38' W 074°04'0 0.1
2018-Jun-13 07:00N 40°38' W 074°04'0 0.1
2018-Jun-13 06:30N 40°38' W 074°04'0 0.1
2018-Jun-13 06:00N 40°38' W 074°04'0 0.0
2018-Jun-13 05:30N 40°38' W 074°04'0 0.1
2018-Jun-13 05:00N 40°38' W 074°04'0 0.1
2018-Jun-13 04:30N 40°38' W 074°04'0 0.1
2018-Jun-13 04:00N 40°38' W 074°04'0 0.0
2018-Jun-13 03:30N 40°38' W 074°04'0 0.1
2018-Jun-13 03:00N 40°38' W 074°04'0 0.3
2018-Jun-13 02:30N 40°38' W 074°04'0 0.3
2018-Jun-13 02:00N 40°38' W 074°04'0 0.0
2018-Jun-13 01:30N 40°38' W 074°04'0 0.0
2018-Jun-13 00:51N 40°38' W 074°04'0 0.0
2018-Jun-13 00:30N 40°38' W 074°04'0 0.0
2018-Jun-12 23:59N 40°38' W 074°04'0 0.0
2018-Jun-12 23:30N 40°38' W 074°04'0 0.1
2018-Jun-12 23:00N 40°38' W 074°04'0 0.0
2018-Jun-12 22:30N 40°38' W 074°04'0 0.0
2018-Jun-12 22:00N 40°38' W 074°04'0 0.8
2018-Jun-12 21:30N 40°38' W 074°03'5 9.7
2018-Jun-12 21:00N 40°34' W 074°02'5 9.3
2018-Jun-12 20:30N 40°29' W 074°03'10 0.4
2018-Jun-11 20:06N 40°39' W 074°05'0 4.9
2018-Jun-11 20:00N 40°39' W 074°04'1 0.3
2018-Jun-11 16:24N 40°38' W 074°03'0 0.0
2018-Jun-11 07:39N 40°39' W 074°03'0 0.4
2018-Jun-11 07:21N 40°38' W 074°03'0 0.3
2018-Jun-11 07:00N 40°38' W 074°03'0 0.0
2018-Jun-11 06:30N 40°38' W 074°03'0 0.0
2018-Jun-11 06:00N 40°38' W 074°03'0 0.0
2018-Jun-11 05:30N 40°38' W 074°03'0 0.1
2018-Jun-11 05:00N 40°38' W 074°03'0 0.1
2018-Jun-11 04:30N 40°38' W 074°03'0 0.0
2018-Jun-11 04:00N 40°38' W 074°03'0 0.0
2018-Jun-11 03:30N 40°38' W 074°03'0 0.1
2018-Jun-11 03:00N 40°38' W 074°03'0 0.1
2018-Jun-11 02:30N 40°38' W 074°03'0 0.2
2018-Jun-11 02:00N 40°38' W 074°03'0 0.1
2018-Jun-11 01:30N 40°38' W 074°03'0 0.1
2018-Jun-11 00:57N 40°38' W 074°03'0 0.4
2018-Jun-11 00:30N 40°39' W 074°03'0 0.1
2018-Jun-11 00:00N 40°39' W 074°03'0 0.0
2018-Jun-10 23:30N 40°39' W 074°03'0 0.0
2018-Jun-10 23:00N 40°39' W 074°03'0 0.0
2018-Jun-10 22:30N 40°39' W 074°03'0 0.0
2018-Jun-10 22:00N 40°39' W 074°03'0 0.0
2018-Jun-10 21:30N 40°39' W 074°03'0 0.0
2018-Jun-10 21:00N 40°39' W 074°03'0 0.0
2018-Jun-10 20:30N 40°39' W 074°03'0 0.0
2018-Jun-10 19:57N 40°39' W 074°03'0 0.0
2018-Jun-10 19:30N 40°39' W 074°03'0 0.1
2018-Jun-10 19:00N 40°39' W 074°03'0 0.1
2018-Jun-10 18:30N 40°39' W 074°03'0 0.3
2018-Jun-10 17:54N 40°38' W 074°03'0 0.1
2018-Jun-10 17:30N 40°38' W 074°03'0 0.1
2018-Jun-10 17:00N 40°38' W 074°03'0 0.1
2018-Jun-10 16:30N 40°38' W 074°03'0 0.0
2018-Jun-10 16:00N 40°38' W 074°03'0 0.0
2018-Jun-10 15:30N 40°38' W 074°03'0 0.0
2018-Jun-10 15:00N 40°38' W 074°03'0 0.0
2018-Jun-10 14:00N 40°38' W 074°03'0 0.1
2018-Jun-10 13:30N 40°38' W 074°03'0 0.0
2018-Jun-10 13:00N 40°38' W 074°03'0 0.0
2018-Jun-10 12:30N 40°38' W 074°03'0 0.0
2018-Jun-10 12:00N 40°38' W 074°03'0 0.1
2018-Jun-10 11:30N 40°38' W 074°03'2 3.9
2018-Jun-10 11:01N 40°36' W 074°03'4 7.9
2018-Jun-10 10:30N 40°33' W 074°01'4 7.5
2018-Jun-10 09:58N 40°30' W 073°57'  

Dump ship's entire track history